sensor_id;sensor_type;location;lat;lon;timestamp;P1;durP1;ratioP1;P2;durP2;ratioP2
3523;SDS011;1776;53.330;11.498;2023-11-21T00:01:57;19.23;;;11.63;;
3523;SDS011;1776;53.330;11.498;2023-11-21T00:04:23;20.80;;;11.30;;
3523;SDS011;1776;53.330;11.498;2023-11-21T00:06:48;21.20;;;10.90;;
3523;SDS011;1776;53.330;11.498;2023-11-21T00:09:14;17.50;;;11.47;;
3523;SDS011;1776;53.330;11.498;2023-11-21T00:11:43;17.00;;;11.53;;
3523;SDS011;1776;53.330;11.498;2023-11-21T00:14:10;17.80;;;10.67;;
3523;SDS011;1776;53.330;11.498;2023-11-21T00:16:36;18.17;;;11.57;;
3523;SDS011;1776;53.330;11.498;2023-11-21T00:19:01;14.07;;;10.20;;
3523;SDS011;1776;53.330;11.498;2023-11-21T00:21:26;17.33;;;10.33;;
3523;SDS011;1776;53.330;11.498;2023-11-21T00:23:52;16.80;;;10.60;;
3523;SDS011;1776;53.330;11.498;2023-11-21T00:26:17;21.83;;;12.60;;
3523;SDS011;1776;53.330;11.498;2023-11-21T00:28:42;17.37;;;11.03;;
3523;SDS011;1776;53.330;11.498;2023-11-21T00:31:07;14.53;;;10.60;;
3523;SDS011;1776;53.330;11.498;2023-11-21T00:33:33;15.87;;;9.67;;
3523;SDS011;1776;53.330;11.498;2023-11-21T00:35:58;15.97;;;11.50;;
3523;SDS011;1776;53.330;11.498;2023-11-21T00:38:24;13.30;;;8.80;;
3523;SDS011;1776;53.330;11.498;2023-11-21T00:40:49;12.10;;;8.17;;
3523;SDS011;1776;53.330;11.498;2023-11-21T00:43:14;15.83;;;8.40;;
3523;SDS011;1776;53.330;11.498;2023-11-21T00:45:40;10.97;;;7.67;;
3523;SDS011;1776;53.330;11.498;2023-11-21T00:48:05;13.50;;;8.40;;
3523;SDS011;1776;53.330;11.498;2023-11-21T00:50:30;14.60;;;8.53;;
3523;SDS011;1776;53.330;11.498;2023-11-21T00:52:56;11.93;;;8.37;;
3523;SDS011;1776;53.330;11.498;2023-11-21T00:55:21;13.47;;;8.40;;
3523;SDS011;1776;53.330;11.498;2023-11-21T00:57:47;13.67;;;9.80;;
3523;SDS011;1776;53.330;11.498;2023-11-21T01:00:12;10.80;;;7.93;;
3523;SDS011;1776;53.330;11.498;2023-11-21T01:02:42;11.77;;;8.33;;
3523;SDS011;1776;53.330;11.498;2023-11-21T01:05:09;12.57;;;7.90;;
3523;SDS011;1776;53.330;11.498;2023-11-21T01:07:35;11.47;;;7.80;;
3523;SDS011;1776;53.330;11.498;2023-11-21T01:10:01;9.53;;;7.37;;
3523;SDS011;1776;53.330;11.498;2023-11-21T01:12:27;15.17;;;9.27;;
3523;SDS011;1776;53.330;11.498;2023-11-21T01:14:52;11.70;;;8.03;;
3523;SDS011;1776;53.330;11.498;2023-11-21T01:17:18;11.10;;;7.97;;
3523;SDS011;1776;53.330;11.498;2023-11-21T01:19:43;11.30;;;7.30;;
3523;SDS011;1776;53.330;11.498;2023-11-21T01:22:08;10.80;;;7.67;;
3523;SDS011;1776;53.330;11.498;2023-11-21T01:24:34;12.60;;;8.20;;
3523;SDS011;1776;53.330;11.498;2023-11-21T01:26:59;9.90;;;8.00;;
3523;SDS011;1776;53.330;11.498;2023-11-21T01:29:24;12.20;;;7.50;;
3523;SDS011;1776;53.330;11.498;2023-11-21T01:31:50;12.47;;;7.70;;
3523;SDS011;1776;53.330;11.498;2023-11-21T01:34:15;10.30;;;7.73;;
3523;SDS011;1776;53.330;11.498;2023-11-21T01:36:40;12.43;;;8.47;;
3523;SDS011;1776;53.330;11.498;2023-11-21T01:39:05;10.60;;;7.27;;
3523;SDS011;1776;53.330;11.498;2023-11-21T01:41:33;11.73;;;8.57;;
3523;SDS011;1776;53.330;11.498;2023-11-21T01:44:00;13.20;;;7.90;;
3523;SDS011;1776;53.330;11.498;2023-11-21T01:46:25;10.17;;;6.87;;
3523;SDS011;1776;53.330;11.498;2023-11-21T01:48:51;13.40;;;8.30;;
3523;SDS011;1776;53.330;11.498;2023-11-21T01:51:18;9.80;;;7.87;;
3523;SDS011;1776;53.330;11.498;2023-11-21T01:53:43;11.23;;;8.37;;
3523;SDS011;1776;53.330;11.498;2023-11-21T01:56:11;12.67;;;8.33;;
3523;SDS011;1776;53.330;11.498;2023-11-21T01:58:37;12.03;;;8.03;;
3523;SDS011;1776;53.330;11.498;2023-11-21T02:01:02;13.50;;;8.57;;
3523;SDS011;1776;53.330;11.498;2023-11-21T02:03:28;10.40;;;7.47;;
3523;SDS011;1776;53.330;11.498;2023-11-21T02:05:53;9.80;;;7.63;;
3523;SDS011;1776;53.330;11.498;2023-11-21T02:08:19;12.67;;;9.43;;
3523;SDS011;1776;53.330;11.498;2023-11-21T02:10:44;11.90;;;8.10;;
3523;SDS011;1776;53.330;11.498;2023-11-21T02:13:10;14.60;;;7.57;;
3523;SDS011;1776;53.330;11.498;2023-11-21T02:15:36;11.10;;;7.70;;
3523;SDS011;1776;53.330;11.498;2023-11-21T02:18:03;13.07;;;8.87;;
3523;SDS011;1776;53.330;11.498;2023-11-21T02:20:30;11.30;;;7.73;;
3523;SDS011;1776;53.330;11.498;2023-11-21T02:22:59;11.70;;;8.50;;
3523;SDS011;1776;53.330;11.498;2023-11-21T02:25:25;9.57;;;7.43;;
3523;SDS011;1776;53.330;11.498;2023-11-21T02:27:57;11.43;;;8.40;;
3523;SDS011;1776;53.330;11.498;2023-11-21T02:30:24;12.40;;;8.10;;
3523;SDS011;1776;53.330;11.498;2023-11-21T02:32:51;11.93;;;7.73;;
3523;SDS011;1776;53.330;11.498;2023-11-21T02:35:19;13.70;;;8.55;;
3523;SDS011;1776;53.330;11.498;2023-11-21T02:37:50;14.87;;;8.40;;
3523;SDS011;1776;53.330;11.498;2023-11-21T02:40:16;11.60;;;7.83;;
3523;SDS011;1776;53.330;11.498;2023-11-21T02:42:46;13.82;;;8.85;;
3523;SDS011;1776;53.330;11.498;2023-11-21T02:45:12;14.83;;;7.83;;
3523;SDS011;1776;53.330;11.498;2023-11-21T02:47:45;10.73;;;7.53;;
3523;SDS011;1776;53.330;11.498;2023-11-21T02:50:11;11.60;;;7.83;;
3523;SDS011;1776;53.330;11.498;2023-11-21T02:52:37;9.30;;;6.93;;
3523;SDS011;1776;53.330;11.498;2023-11-21T02:55:02;12.47;;;8.93;;
3523;SDS011;1776;53.330;11.498;2023-11-21T02:57:28;10.10;;;7.50;;
3523;SDS011;1776;53.330;11.498;2023-11-21T02:59:53;11.53;;;7.80;;
3523;SDS011;1776;53.330;11.498;2023-11-21T03:02:19;13.30;;;7.73;;
3523;SDS011;1776;53.330;11.498;2023-11-21T03:04:44;10.07;;;7.80;;
3523;SDS011;1776;53.330;11.498;2023-11-21T03:07:10;10.80;;;7.70;;
3523;SDS011;1776;53.330;11.498;2023-11-21T03:09:35;9.97;;;7.30;;
3523;SDS011;1776;53.330;11.498;2023-11-21T03:12:00;10.50;;;7.60;;
3523;SDS011;1776;53.330;11.498;2023-11-21T03:14:26;12.53;;;8.10;;
3523;SDS011;1776;53.330;11.498;2023-11-21T03:16:51;12.30;;;7.63;;
3523;SDS011;1776;53.330;11.498;2023-11-21T03:19:16;14.97;;;8.37;;
3523;SDS011;1776;53.330;11.498;2023-11-21T03:21:42;11.53;;;7.83;;
3523;SDS011;1776;53.330;11.498;2023-11-21T03:24:07;9.13;;;7.60;;
3523;SDS011;1776;53.330;11.498;2023-11-21T03:26:33;11.30;;;7.20;;
3523;SDS011;1776;53.330;11.498;2023-11-21T03:28:58;12.60;;;7.87;;
3523;SDS011;1776;53.330;11.498;2023-11-21T03:31:23;10.30;;;8.00;;
3523;SDS011;1776;53.330;11.498;2023-11-21T03:33:49;11.83;;;7.80;;
3523;SDS011;1776;53.330;11.498;2023-11-21T03:36:14;12.13;;;8.00;;
3523;SDS011;1776;53.330;11.498;2023-11-21T03:38:40;13.10;;;8.23;;
3523;SDS011;1776;53.330;11.498;2023-11-21T03:41:06;12.40;;;8.17;;
3523;SDS011;1776;53.330;11.498;2023-11-21T03:43:31;14.77;;;8.90;;
3523;SDS011;1776;53.330;11.498;2023-11-21T03:45:57;12.37;;;8.57;;
3523;SDS011;1776;53.330;11.498;2023-11-21T03:48:22;14.67;;;9.30;;
3523;SDS011;1776;53.330;11.498;2023-11-21T03:50:47;14.60;;;8.97;;
3523;SDS011;1776;53.330;11.498;2023-11-21T03:53:13;12.03;;;7.70;;
3523;SDS011;1776;53.330;11.498;2023-11-21T03:55:39;13.77;;;9.80;;
3523;SDS011;1776;53.330;11.498;2023-11-21T03:58:04;10.90;;;7.33;;
3523;SDS011;1776;53.330;11.498;2023-11-21T04:00:29;13.47;;;9.40;;
3523;SDS011;1776;53.330;11.498;2023-11-21T04:02:54;9.67;;;7.40;;
3523;SDS011;1776;53.330;11.498;2023-11-21T04:05:20;12.83;;;8.90;;
3523;SDS011;1776;53.330;11.498;2023-11-21T04:07:51;13.03;;;9.37;;
3523;SDS011;1776;53.330;11.498;2023-11-21T04:10:16;11.40;;;7.73;;
3523;SDS011;1776;53.330;11.498;2023-11-21T04:12:42;12.77;;;8.90;;
3523;SDS011;1776;53.330;11.498;2023-11-21T04:15:08;13.90;;;9.20;;
3523;SDS011;1776;53.330;11.498;2023-11-21T04:17:34;12.37;;;8.50;;
3523;SDS011;1776;53.330;11.498;2023-11-21T04:20:00;11.33;;;7.70;;
3523;SDS011;1776;53.330;11.498;2023-11-21T04:22:25;11.53;;;8.20;;
3523;SDS011;1776;53.330;11.498;2023-11-21T04:24:50;13.40;;;10.10;;
3523;SDS011;1776;53.330;11.498;2023-11-21T04:27:16;13.27;;;8.93;;
3523;SDS011;1776;53.330;11.498;2023-11-21T04:29:45;12.90;;;8.77;;
3523;SDS011;1776;53.330;11.498;2023-11-21T04:32:10;12.70;;;8.50;;
3523;SDS011;1776;53.330;11.498;2023-11-21T04:34:35;13.90;;;9.50;;
3523;SDS011;1776;53.330;11.498;2023-11-21T04:37:01;11.03;;;8.30;;
3523;SDS011;1776;53.330;11.498;2023-11-21T04:39:26;11.27;;;8.50;;
3523;SDS011;1776;53.330;11.498;2023-11-21T04:41:52;12.00;;;8.53;;
3523;SDS011;1776;53.330;11.498;2023-11-21T04:44:17;13.10;;;9.10;;
3523;SDS011;1776;53.330;11.498;2023-11-21T04:46:42;12.23;;;8.57;;
3523;SDS011;1776;53.330;11.498;2023-11-21T04:49:07;13.03;;;8.07;;
3523;SDS011;1776;53.330;11.498;2023-11-21T04:51:33;10.13;;;8.30;;
3523;SDS011;1776;53.330;11.498;2023-11-21T04:53:58;12.83;;;9.60;;
3523;SDS011;1776;53.330;11.498;2023-11-21T04:56:24;11.40;;;8.17;;
3523;SDS011;1776;53.330;11.498;2023-11-21T04:58:49;10.70;;;8.47;;
3523;SDS011;1776;53.330;11.498;2023-11-21T05:01:15;10.47;;;7.80;;
3523;SDS011;1776;53.330;11.498;2023-11-21T05:03:40;19.63;;;9.13;;
3523;SDS011;1776;53.330;11.498;2023-11-21T05:06:06;12.47;;;9.33;;
3523;SDS011;1776;53.330;11.498;2023-11-21T05:08:31;15.50;;;8.73;;
3523;SDS011;1776;53.330;11.498;2023-11-21T05:10:57;16.10;;;9.67;;
3523;SDS011;1776;53.330;11.498;2023-11-21T05:13:22;14.83;;;7.97;;
3523;SDS011;1776;53.330;11.498;2023-11-21T05:15:52;12.13;;;7.87;;
3523;SDS011;1776;53.330;11.498;2023-11-21T05:18:17;15.73;;;8.20;;
3523;SDS011;1776;53.330;11.498;2023-11-21T05:20:42;12.10;;;8.20;;
3523;SDS011;1776;53.330;11.498;2023-11-21T05:23:08;13.40;;;8.77;;
3523;SDS011;1776;53.330;11.498;2023-11-21T05:25:33;11.80;;;8.37;;
3523;SDS011;1776;53.330;11.498;2023-11-21T05:27:59;10.47;;;8.40;;
3523;SDS011;1776;53.330;11.498;2023-11-21T05:30:26;12.30;;;8.67;;
3523;SDS011;1776;53.330;11.498;2023-11-21T05:32:52;14.00;;;8.03;;
3523;SDS011;1776;53.330;11.498;2023-11-21T05:35:17;12.50;;;8.67;;
3523;SDS011;1776;53.330;11.498;2023-11-21T05:37:42;12.17;;;8.83;;
3523;SDS011;1776;53.330;11.498;2023-11-21T05:40:08;11.43;;;8.90;;
3523;SDS011;1776;53.330;11.498;2023-11-21T05:42:35;14.83;;;8.60;;
3523;SDS011;1776;53.330;11.498;2023-11-21T05:45:00;10.10;;;8.50;;
3523;SDS011;1776;53.330;11.498;2023-11-21T05:47:36;10.30;;;8.80;;
3523;SDS011;1776;53.330;11.498;2023-11-21T05:50:05;12.47;;;8.93;;
3523;SDS011;1776;53.330;11.498;2023-11-21T05:52:32;13.07;;;8.23;;
3523;SDS011;1776;53.330;11.498;2023-11-21T05:54:57;10.03;;;8.20;;
3523;SDS011;1776;53.330;11.498;2023-11-21T05:57:23;12.60;;;8.20;;
3523;SDS011;1776;53.330;11.498;2023-11-21T05:59:48;10.50;;;8.57;;
3523;SDS011;1776;53.330;11.498;2023-11-21T06:02:14;10.10;;;7.73;;
3523;SDS011;1776;53.330;11.498;2023-11-21T06:04:39;15.87;;;9.87;;
3523;SDS011;1776;53.330;11.498;2023-11-21T06:07:04;12.20;;;9.97;;
3523;SDS011;1776;53.330;11.498;2023-11-21T06:09:29;12.17;;;8.37;;
3523;SDS011;1776;53.330;11.498;2023-11-21T06:11:55;9.93;;;8.30;;
3523;SDS011;1776;53.330;11.498;2023-11-21T06:14:20;12.90;;;8.87;;
3523;SDS011;1776;53.330;11.498;2023-11-21T06:16:46;12.63;;;8.30;;
3523;SDS011;1776;53.330;11.498;2023-11-21T06:19:12;10.83;;;7.90;;
3523;SDS011;1776;53.330;11.498;2023-11-21T06:21:37;12.03;;;9.23;;
3523;SDS011;1776;53.330;11.498;2023-11-21T06:24:03;11.90;;;9.02;;
3523;SDS011;1776;53.330;11.498;2023-11-21T06:26:29;10.03;;;7.17;;
3523;SDS011;1776;53.330;11.498;2023-11-21T06:28:54;13.20;;;9.40;;
3523;SDS011;1776;53.330;11.498;2023-11-21T06:31:20;12.67;;;9.40;;
3523;SDS011;1776;53.330;11.498;2023-11-21T06:33:46;14.43;;;9.10;;
3523;SDS011;1776;53.330;11.498;2023-11-21T06:36:12;13.60;;;9.00;;
3523;SDS011;1776;53.330;11.498;2023-11-21T06:38:37;14.90;;;11.80;;
3523;SDS011;1776;53.330;11.498;2023-11-21T06:41:02;10.80;;;8.90;;
3523;SDS011;1776;53.330;11.498;2023-11-21T06:43:29;12.57;;;9.87;;
3523;SDS011;1776;53.330;11.498;2023-11-21T06:45:56;10.03;;;8.20;;
3523;SDS011;1776;53.330;11.498;2023-11-21T06:48:21;12.60;;;9.33;;
3523;SDS011;1776;53.330;11.498;2023-11-21T06:50:46;13.20;;;8.63;;
3523;SDS011;1776;53.330;11.498;2023-11-21T06:53:12;12.63;;;9.17;;
3523;SDS011;1776;53.330;11.498;2023-11-21T06:55:38;16.30;;;10.43;;
3523;SDS011;1776;53.330;11.498;2023-11-21T06:58:03;14.07;;;11.03;;
3523;SDS011;1776;53.330;11.498;2023-11-21T07:00:30;12.43;;;10.37;;
3523;SDS011;1776;53.330;11.498;2023-11-21T07:02:55;14.43;;;8.87;;
3523;SDS011;1776;53.330;11.498;2023-11-21T07:05:21;10.93;;;7.93;;
3523;SDS011;1776;53.330;11.498;2023-11-21T07:07:47;14.07;;;8.77;;
3523;SDS011;1776;53.330;11.498;2023-11-21T07:10:13;9.83;;;6.90;;
3523;SDS011;1776;53.330;11.498;2023-11-21T07:12:38;9.57;;;7.77;;
3523;SDS011;1776;53.330;11.498;2023-11-21T07:15:05;9.50;;;6.97;;
3523;SDS011;1776;53.330;11.498;2023-11-21T07:17:34;9.27;;;6.77;;
3523;SDS011;1776;53.330;11.498;2023-11-21T07:20:02;9.20;;;6.60;;
3523;SDS011;1776;53.330;11.498;2023-11-21T07:22:28;10.00;;;6.40;;
3523;SDS011;1776;53.330;11.498;2023-11-21T07:24:53;8.53;;;6.67;;
3523;SDS011;1776;53.330;11.498;2023-11-21T07:27:19;8.87;;;6.90;;
3523;SDS011;1776;53.330;11.498;2023-11-21T07:29:44;8.67;;;6.77;;
3523;SDS011;1776;53.330;11.498;2023-11-21T07:32:10;12.23;;;8.43;;
3523;SDS011;1776;53.330;11.498;2023-11-21T07:34:35;14.03;;;7.60;;
3523;SDS011;1776;53.330;11.498;2023-11-21T07:37:01;6.50;;;5.77;;
3523;SDS011;1776;53.330;11.498;2023-11-21T07:39:27;14.23;;;7.03;;
3523;SDS011;1776;53.330;11.498;2023-11-21T07:41:53;10.67;;;7.30;;
3523;SDS011;1776;53.330;11.498;2023-11-21T07:44:18;10.30;;;7.23;;
3523;SDS011;1776;53.330;11.498;2023-11-21T07:46:44;10.47;;;7.73;;
3523;SDS011;1776;53.330;11.498;2023-11-21T07:49:10;7.40;;;6.10;;
3523;SDS011;1776;53.330;11.498;2023-11-21T07:51:35;9.40;;;6.50;;
3523;SDS011;1776;53.330;11.498;2023-11-21T07:54:00;10.53;;;7.07;;
3523;SDS011;1776;53.330;11.498;2023-11-21T07:56:26;12.23;;;6.40;;
3523;SDS011;1776;53.330;11.498;2023-11-21T07:58:51;12.27;;;7.43;;
3523;SDS011;1776;53.330;11.498;2023-11-21T08:01:17;8.27;;;6.23;;
3523;SDS011;1776;53.330;11.498;2023-11-21T08:03:42;7.33;;;6.00;;
3523;SDS011;1776;53.330;11.498;2023-11-21T08:06:09;9.73;;;5.40;;
3523;SDS011;1776;53.330;11.498;2023-11-21T08:08:34;7.43;;;6.33;;
3523;SDS011;1776;53.330;11.498;2023-11-21T08:10:59;9.50;;;7.10;;
3523;SDS011;1776;53.330;11.498;2023-11-21T08:13:27;11.27;;;7.50;;
3523;SDS011;1776;53.330;11.498;2023-11-21T08:15:55;12.13;;;7.23;;
3523;SDS011;1776;53.330;11.498;2023-11-21T08:18:23;7.73;;;5.70;;
3523;SDS011;1776;53.330;11.498;2023-11-21T08:20:49;7.37;;;6.10;;
3523;SDS011;1776;53.330;11.498;2023-11-21T08:23:14;10.63;;;6.13;;
3523;SDS011;1776;53.330;11.498;2023-11-21T08:25:42;12.77;;;6.33;;
3523;SDS011;1776;53.330;11.498;2023-11-21T08:28:10;10.83;;;6.90;;
3523;SDS011;1776;53.330;11.498;2023-11-21T08:30:36;9.30;;;6.47;;
3523;SDS011;1776;53.330;11.498;2023-11-21T08:33:01;7.97;;;5.77;;
3523;SDS011;1776;53.330;11.498;2023-11-21T08:35:28;8.27;;;6.40;;
3523;SDS011;1776;53.330;11.498;2023-11-21T08:37:53;6.70;;;5.93;;
3523;SDS011;1776;53.330;11.498;2023-11-21T08:40:19;7.47;;;6.03;;
3523;SDS011;1776;53.330;11.498;2023-11-21T08:42:46;6.50;;;5.73;;
3523;SDS011;1776;53.330;11.498;2023-11-21T08:45:11;7.80;;;5.77;;
3523;SDS011;1776;53.330;11.498;2023-11-21T08:47:37;7.70;;;6.20;;
3523;SDS011;1776;53.330;11.498;2023-11-21T08:50:03;12.47;;;5.60;;
3523;SDS011;1776;53.330;11.498;2023-11-21T08:52:31;8.00;;;6.10;;
3523;SDS011;1776;53.330;11.498;2023-11-21T08:54:56;6.93;;;5.27;;
3523;SDS011;1776;53.330;11.498;2023-11-21T08:57:22;5.67;;;4.97;;
3523;SDS011;1776;53.330;11.498;2023-11-21T08:59:47;7.77;;;5.13;;
3523;SDS011;1776;53.330;11.498;2023-11-21T09:02:13;9.00;;;5.83;;
3523;SDS011;1776;53.330;11.498;2023-11-21T09:04:38;6.13;;;4.30;;
3523;SDS011;1776;53.330;11.498;2023-11-21T09:07:03;9.50;;;6.50;;
3523;SDS011;1776;53.330;11.498;2023-11-21T09:09:28;6.30;;;4.80;;
3523;SDS011;1776;53.330;11.498;2023-11-21T09:11:55;10.43;;;5.57;;
3523;SDS011;1776;53.330;11.498;2023-11-21T09:14:20;9.67;;;5.20;;
3523;SDS011;1776;53.330;11.498;2023-11-21T09:16:45;11.47;;;5.57;;
3523;SDS011;1776;53.330;11.498;2023-11-21T09:19:11;7.57;;;4.90;;
3523;SDS011;1776;53.330;11.498;2023-11-21T09:21:39;5.40;;;4.77;;
3523;SDS011;1776;53.330;11.498;2023-11-21T09:24:04;7.00;;;4.87;;
3523;SDS011;1776;53.330;11.498;2023-11-21T09:26:30;9.63;;;5.50;;
3523;SDS011;1776;53.330;11.498;2023-11-21T09:28:55;6.60;;;4.50;;
3523;SDS011;1776;53.330;11.498;2023-11-21T09:31:21;11.27;;;4.60;;
3523;SDS011;1776;53.330;11.498;2023-11-21T09:33:47;8.50;;;5.93;;
3523;SDS011;1776;53.330;11.498;2023-11-21T09:36:13;6.67;;;5.27;;
3523;SDS011;1776;53.330;11.498;2023-11-21T09:38:39;7.40;;;4.77;;
3523;SDS011;1776;53.330;11.498;2023-11-21T09:41:06;5.77;;;5.07;;
3523;SDS011;1776;53.330;11.498;2023-11-21T09:43:42;10.80;;;5.07;;
3523;SDS011;1776;53.330;11.498;2023-11-21T09:46:11;5.97;;;5.33;;
3523;SDS011;1776;53.330;11.498;2023-11-21T09:48:44;7.00;;;5.00;;
3523;SDS011;1776;53.330;11.498;2023-11-21T09:51:15;6.30;;;4.40;;
3523;SDS011;1776;53.330;11.498;2023-11-21T09:53:45;10.27;;;5.17;;
3523;SDS011;1776;53.330;11.498;2023-11-21T09:56:14;7.43;;;5.47;;
3523;SDS011;1776;53.330;11.498;2023-11-21T09:58:44;7.63;;;4.60;;
3523;SDS011;1776;53.330;11.498;2023-11-21T10:01:09;7.50;;;4.90;;
3523;SDS011;1776;53.330;11.498;2023-11-21T10:03:36;6.15;;;5.30;;
3523;SDS011;1776;53.330;11.498;2023-11-21T10:06:03;7.83;;;4.63;;
3523;SDS011;1776;53.330;11.498;2023-11-21T10:08:30;7.03;;;5.13;;
3523;SDS011;1776;53.330;11.498;2023-11-21T10:10:57;7.77;;;5.10;;
3523;SDS011;1776;53.330;11.498;2023-11-21T10:13:24;6.53;;;5.33;;
3523;SDS011;1776;53.330;11.498;2023-11-21T10:15:51;9.83;;;5.73;;
3523;SDS011;1776;53.330;11.498;2023-11-21T10:18:17;8.07;;;5.00;;
3523;SDS011;1776;53.330;11.498;2023-11-21T10:20:44;8.20;;;5.07;;
3523;SDS011;1776;53.330;11.498;2023-11-21T10:23:16;6.90;;;5.00;;
3523;SDS011;1776;53.330;11.498;2023-11-21T10:25:43;7.47;;;5.07;;
3523;SDS011;1776;53.330;11.498;2023-11-21T10:28:09;6.03;;;4.20;;
3523;SDS011;1776;53.330;11.498;2023-11-21T10:30:36;8.27;;;4.90;;
3523;SDS011;1776;53.330;11.498;2023-11-21T10:33:03;6.83;;;4.77;;
3523;SDS011;1776;53.330;11.498;2023-11-21T10:35:39;6.10;;;5.43;;
3523;SDS011;1776;53.330;11.498;2023-11-21T10:38:07;6.83;;;4.87;;
3523;SDS011;1776;53.330;11.498;2023-11-21T10:40:37;5.63;;;4.33;;
3523;SDS011;1776;53.330;11.498;2023-11-21T10:43:07;8.43;;;5.23;;
3523;SDS011;1776;53.330;11.498;2023-11-21T10:45:38;6.00;;;4.57;;
3523;SDS011;1776;53.330;11.498;2023-11-21T10:48:07;5.30;;;4.43;;
3523;SDS011;1776;53.330;11.498;2023-11-21T10:50:34;10.20;;;5.23;;
3523;SDS011;1776;53.330;11.498;2023-11-21T10:53:03;7.70;;;5.40;;
3523;SDS011;1776;53.330;11.498;2023-11-21T10:55:30;6.53;;;4.80;;
3523;SDS011;1776;53.330;11.498;2023-11-21T10:57:58;10.43;;;5.00;;
3523;SDS011;1776;53.330;11.498;2023-11-21T11:00:24;8.40;;;5.70;;
3523;SDS011;1776;53.330;11.498;2023-11-21T11:02:52;5.77;;;4.57;;
3523;SDS011;1776;53.330;11.498;2023-11-21T11:05:22;7.70;;;5.40;;
3523;SDS011;1776;53.330;11.498;2023-11-21T11:07:50;7.87;;;5.07;;
3523;SDS011;1776;53.330;11.498;2023-11-21T11:10:20;6.90;;;4.97;;
3523;SDS011;1776;53.330;11.498;2023-11-21T11:12:47;6.13;;;5.20;;
3523;SDS011;1776;53.330;11.498;2023-11-21T11:15:14;7.90;;;5.13;;
3523;SDS011;1776;53.330;11.498;2023-11-21T11:17:41;7.10;;;5.90;;
3523;SDS011;1776;53.330;11.498;2023-11-21T11:20:07;7.10;;;5.10;;
3523;SDS011;1776;53.330;11.498;2023-11-21T11:25:38;9.03;;;6.33;;
3523;SDS011;1776;53.330;11.498;2023-11-21T11:31:21;7.00;;;5.00;;
3523;SDS011;1776;53.330;11.498;2023-11-21T11:36:55;5.10;;;4.63;;
3523;SDS011;1776;53.330;11.498;2023-11-21T11:39:31;7.87;;;6.30;;
3523;SDS011;1776;53.330;11.498;2023-11-21T11:42:01;9.00;;;5.10;;
3523;SDS011;1776;53.330;11.498;2023-11-21T11:47:21;7.97;;;6.13;;
3523;SDS011;1776;53.330;11.498;2023-11-21T11:50:08;7.30;;;5.63;;
3523;SDS011;1776;53.330;11.498;2023-11-21T11:55:14;7.77;;;5.60;;
3523;SDS011;1776;53.330;11.498;2023-11-21T11:57:43;7.93;;;6.03;;
3523;SDS011;1776;53.330;11.498;2023-11-21T12:02:41;11.83;;;7.20;;
3523;SDS011;1776;53.330;11.498;2023-11-21T12:05:09;9.70;;;6.80;;
3523;SDS011;1776;53.330;11.498;2023-11-21T12:08:00;8.00;;;5.80;;
3523;SDS011;1776;53.330;11.498;2023-11-21T12:10:26;7.47;;;6.17;;
3523;SDS011;1776;53.330;11.498;2023-11-21T12:12:53;10.90;;;5.67;;
3523;SDS011;1776;53.330;11.498;2023-11-21T12:15:20;10.87;;;5.80;;
3523;SDS011;1776;53.330;11.498;2023-11-21T12:17:46;7.83;;;6.47;;
3523;SDS011;1776;53.330;11.498;2023-11-21T12:20:14;8.30;;;6.70;;
3523;SDS011;1776;53.330;11.498;2023-11-21T12:22:45;9.03;;;6.53;;
3523;SDS011;1776;53.330;11.498;2023-11-21T12:25:12;12.03;;;6.37;;
3523;SDS011;1776;53.330;11.498;2023-11-21T12:27:41;7.70;;;5.43;;
3523;SDS011;1776;53.330;11.498;2023-11-21T12:30:07;10.90;;;6.00;;
3523;SDS011;1776;53.330;11.498;2023-11-21T12:32:38;10.93;;;6.50;;
3523;SDS011;1776;53.330;11.498;2023-11-21T12:35:04;10.83;;;6.37;;
3523;SDS011;1776;53.330;11.498;2023-11-21T12:37:31;6.37;;;5.10;;
3523;SDS011;1776;53.330;11.498;2023-11-21T12:39:57;10.50;;;6.40;;
3523;SDS011;1776;53.330;11.498;2023-11-21T12:42:23;8.50;;;4.97;;
3523;SDS011;1776;53.330;11.498;2023-11-21T12:44:49;8.70;;;6.40;;
3523;SDS011;1776;53.330;11.498;2023-11-21T12:47:33;6.93;;;5.27;;
3523;SDS011;1776;53.330;11.498;2023-11-21T12:50:00;7.45;;;5.28;;
3523;SDS011;1776;53.330;11.498;2023-11-21T12:52:27;4.87;;;4.43;;
3523;SDS011;1776;53.330;11.498;2023-11-21T12:54:53;6.53;;;4.83;;
3523;SDS011;1776;53.330;11.498;2023-11-21T12:57:18;5.60;;;4.97;;
3523;SDS011;1776;53.330;11.498;2023-11-21T12:59:45;6.20;;;5.07;;
3523;SDS011;1776;53.330;11.498;2023-11-21T13:02:12;7.63;;;5.00;;
3523;SDS011;1776;53.330;11.498;2023-11-21T13:04:40;8.40;;;5.10;;
3523;SDS011;1776;53.330;11.498;2023-11-21T13:07:05;7.43;;;4.47;;
3523;SDS011;1776;53.330;11.498;2023-11-21T13:09:39;6.80;;;5.00;;
3523;SDS011;1776;53.330;11.498;2023-11-21T13:12:06;4.97;;;4.40;;
3523;SDS011;1776;53.330;11.498;2023-11-21T13:14:33;7.67;;;4.83;;
3523;SDS011;1776;53.330;11.498;2023-11-21T13:16:59;6.20;;;4.47;;
3523;SDS011;1776;53.330;11.498;2023-11-21T13:19:24;8.07;;;4.73;;
3523;SDS011;1776;53.330;11.498;2023-11-21T13:21:50;7.80;;;5.17;;
3523;SDS011;1776;53.330;11.498;2023-11-21T13:24:15;9.40;;;4.90;;
3523;SDS011;1776;53.330;11.498;2023-11-21T13:26:41;5.83;;;4.97;;
3523;SDS011;1776;53.330;11.498;2023-11-21T13:29:07;6.90;;;5.20;;
3523;SDS011;1776;53.330;11.498;2023-11-21T13:31:33;6.00;;;4.53;;
3523;SDS011;1776;53.330;11.498;2023-11-21T13:34:01;6.10;;;4.57;;
3523;SDS011;1776;53.330;11.498;2023-11-21T13:36:30;10.23;;;5.40;;
3523;SDS011;1776;53.330;11.498;2023-11-21T13:38:57;4.60;;;4.00;;
3523;SDS011;1776;53.330;11.498;2023-11-21T13:41:23;5.13;;;4.40;;
3523;SDS011;1776;53.330;11.498;2023-11-21T13:43:55;8.63;;;4.90;;
3523;SDS011;1776;53.330;11.498;2023-11-21T13:46:29;6.33;;;4.40;;
3523;SDS011;1776;53.330;11.498;2023-11-21T13:48:59;5.37;;;3.93;;
3523;SDS011;1776;53.330;11.498;2023-11-21T13:51:25;6.87;;;6.17;;
3523;SDS011;1776;53.330;11.498;2023-11-21T13:54:04;5.03;;;4.23;;
3523;SDS011;1776;53.330;11.498;2023-11-21T13:56:34;5.43;;;3.70;;
3523;SDS011;1776;53.330;11.498;2023-11-21T13:58:59;8.43;;;5.30;;
3523;SDS011;1776;53.330;11.498;2023-11-21T14:01:34;8.23;;;5.30;;
3523;SDS011;1776;53.330;11.498;2023-11-21T14:04:17;6.40;;;5.00;;
3523;SDS011;1776;53.330;11.498;2023-11-21T14:06:43;6.63;;;4.30;;
3523;SDS011;1776;53.330;11.498;2023-11-21T14:09:17;6.50;;;4.30;;
3523;SDS011;1776;53.330;11.498;2023-11-21T14:11:57;6.67;;;4.20;;
3523;SDS011;1776;53.330;11.498;2023-11-21T14:14:26;7.90;;;3.80;;
3523;SDS011;1776;53.330;11.498;2023-11-21T14:16:55;4.60;;;3.43;;
3523;SDS011;1776;53.330;11.498;2023-11-21T14:19:21;5.37;;;3.33;;
3523;SDS011;1776;53.330;11.498;2023-11-21T14:21:47;5.90;;;3.60;;
3523;SDS011;1776;53.330;11.498;2023-11-21T14:24:15;7.70;;;3.70;;
3523;SDS011;1776;53.330;11.498;2023-11-21T14:26:43;5.90;;;3.47;;
3523;SDS011;1776;53.330;11.498;2023-11-21T14:29:10;4.13;;;3.17;;
3523;SDS011;1776;53.330;11.498;2023-11-21T14:31:39;5.50;;;3.60;;
3523;SDS011;1776;53.330;11.498;2023-11-21T14:34:04;6.30;;;3.10;;
3523;SDS011;1776;53.330;11.498;2023-11-21T14:36:31;4.80;;;2.57;;
3523;SDS011;1776;53.330;11.498;2023-11-21T14:38:57;5.93;;;3.63;;
3523;SDS011;1776;53.330;11.498;2023-11-21T14:41:22;2.70;;;2.03;;
3523;SDS011;1776;53.330;11.498;2023-11-21T14:43:47;3.90;;;2.30;;
3523;SDS011;1776;53.330;11.498;2023-11-21T14:46:14;5.10;;;2.60;;
3523;SDS011;1776;53.330;11.498;2023-11-21T14:48:42;6.03;;;2.67;;
3523;SDS011;1776;53.330;11.498;2023-11-21T14:51:10;3.40;;;2.50;;
3523;SDS011;1776;53.330;11.498;2023-11-21T14:53:56;3.43;;;2.37;;
3523;SDS011;1776;53.330;11.498;2023-11-21T14:56:30;3.13;;;2.57;;
3523;SDS011;1776;53.330;11.498;2023-11-21T14:58:57;2.93;;;2.70;;
3523;SDS011;1776;53.330;11.498;2023-11-21T15:01:23;4.23;;;2.80;;
3523;SDS011;1776;53.330;11.498;2023-11-21T15:04:10;3.97;;;3.30;;
3523;SDS011;1776;53.330;11.498;2023-11-21T15:07:02;4.77;;;3.27;;
3523;SDS011;1776;53.330;11.498;2023-11-21T15:09:29;5.37;;;4.23;;